CheckWX is a tool to help pilots better visualize weather data.  It is not intended as a substitute for an official pre-flight weather briefing.

12:28:29 UTC

KOGB TAF
Orangeburg Municipal Airport
Orangeburg, South Carolina, USA
KOGB 261126Z 2612/2712 32005KT P6SM OVC009 FM261500 04012G20KT P6SM OVC015 FM262100 06010G16KT P6SM BKN035 FM270000 05006KT P6SM SCT060

Mar-26@
12:00 UTC

Mar-26 @ 12:00 UTC

Mar-26@
15:00 UTC

Mar-26 @ 15:00 UTC

KOGB 261126Z 2612/2712 32005KT P6SM OVC009
Wind
  • 320° at 5 KTS
Cloud Levels
  • Overcast at 900' AGL

Mar-26@
15:00 UTC

Mar-26 @ 15:00 UTC

Mar-26@
21:00 UTC

Mar-26 @ 21:00 UTC

FM261500 04012G20KT P6SM OVC015

From

From Standard forecast or significant change

Wind
  • 040° at 12 KTS
  • {Gusting to 20 KTS
Cloud Levels
  • Overcast at 1,500' AGL

Mar-26@
21:00 UTC

Mar-26 @ 21:00 UTC

Mar-27@
00:00 UTC

Mar-27 @ 00:00 UTC

FM262100 06010G16KT P6SM BKN035

From

From Standard forecast or significant change

Wind
  • 060° at 10 KTS
  • {Gusting to 16 KTS
Cloud Levels
  • Broken at 3,500' AGL

Mar-27@
00:00 UTC

Mar-27 @ 00:00 UTC

Mar-27@
12:00 UTC

Mar-27 @ 12:00 UTC

FM270000 05006KT P6SM SCT060

From

From Standard forecast or significant change

Wind
  • 050° at 6 KTS
Cloud Levels
  • Scattered at 6,000' AGL